createdAt,value
2022-08-31T00:09:12.634Z,42
2022-08-31T00:19:17.356Z,41
2022-08-31T00:29:22.352Z,42
2022-08-31T00:39:28.745Z,43
2022-08-31T00:49:33.096Z,55
2022-08-31T00:59:38.235Z,96
2022-08-31T01:09:55.743Z,111
2022-08-31T01:20:01.036Z,69
2022-08-31T01:30:05.877Z,82
2022-08-31T01:40:11.424Z,63
2022-08-31T01:50:16.430Z,65
2022-08-31T02:00:22.781Z,57
2022-08-31T02:10:28.642Z,62
2022-08-31T02:20:32.633Z,104
2022-08-31T02:30:37.978Z,80
2022-08-31T02:40:43.830Z,60
2022-08-31T02:50:49.466Z,58
2022-08-31T03:00:53.559Z,44
2022-08-31T03:11:00.189Z,40
2022-08-31T03:21:04.623Z,38
2022-08-31T03:31:09.963Z,35
2022-08-31T03:41:15.009Z,37
2022-08-31T03:51:21.394Z,41
2022-08-31T04:01:27.410Z,37
2022-08-31T04:11:44.503Z,34
2022-08-31T04:21:50.753Z,37
2022-08-31T04:31:56.178Z,40
2022-08-31T04:42:03.062Z,41
2022-08-31T04:52:07.468Z,45
2022-08-31T05:02:12.795Z,40
2022-08-31T05:12:19.467Z,41
2022-08-31T05:22:24.091Z,38
2022-08-31T05:32:29.338Z,33
2022-08-31T05:42:34.342Z,33
2022-08-31T05:52:39.700Z,36
2022-08-31T06:02:54.019Z,32
2022-08-31T06:12:55.625Z,33
2022-08-31T06:23:02.504Z,35
2022-08-31T06:33:08.456Z,33
2022-08-31T06:43:13.027Z,30
2022-08-31T06:53:20.524Z,35
2022-08-31T07:03:25.738Z,31
2022-08-31T07:13:32.233Z,29
2022-08-31T07:23:41.672Z,31
2022-08-31T07:33:49.721Z,28
2022-08-31T07:43:57.938Z,29
2022-08-31T07:54:04.704Z,31
2022-08-31T08:04:06.964Z,30
2022-08-31T08:14:09.650Z,31
2022-08-31T08:24:16.823Z,30
2022-08-31T08:34:32.398Z,32
2022-08-31T08:44:40.496Z,32
2022-08-31T08:54:48.093Z,32
2022-08-31T09:04:53.341Z,30
2022-08-31T09:14:59.399Z,30
2022-08-31T09:25:05.083Z,33
2022-08-31T09:35:15.624Z,31
2022-08-31T09:45:25.522Z,27
2022-08-31T09:55:26.677Z,29
2022-08-31T10:05:34.785Z,30
2022-08-31T10:15:38.617Z,31
2022-08-31T10:25:41.645Z,29
2022-08-31T10:35:50.614Z,29
2022-08-31T10:45:58.885Z,29
2022-08-31T10:56:06.188Z,30
2022-08-31T11:06:12.939Z,30
2022-08-31T11:16:16.804Z,35
2022-08-31T11:26:19.885Z,34
2022-08-31T11:36:23.065Z,35
2022-08-31T11:46:31.443Z,34
2022-08-31T11:56:35.859Z,33
2022-08-31T12:06:41.405Z,41
2022-08-31T12:16:47.101Z,34
2022-08-31T12:26:50.441Z,33
2022-08-31T12:36:54.654Z,29
2022-08-31T12:47:01.533Z,29
2022-08-31T12:57:06.927Z,29
2022-08-31T13:07:09.000Z,32
2022-08-31T13:17:15.083Z,32
2022-08-31T13:27:19.620Z,29
2022-08-31T13:37:22.566Z,29
2022-08-31T13:47:25.549Z,32
2022-08-31T13:57:35.481Z,32
2022-08-31T14:07:36.710Z,33
2022-08-31T14:28:03.552Z,33
2022-08-31T14:38:10.015Z,30
2022-08-31T14:48:13.714Z,33
2022-08-31T14:58:20.111Z,34
2022-08-31T15:08:38.504Z,35
2022-08-31T15:18:37.464Z,37
2022-08-31T15:28:43.240Z,39
2022-08-31T15:38:48.040Z,36
2022-08-31T15:48:54.104Z,39
2022-08-31T15:58:58.318Z,40
2022-08-31T16:09:09.441Z,39
2022-08-31T16:19:34.448Z,38
2022-08-31T16:29:31.002Z,40
2022-08-31T16:39:34.944Z,67
2022-08-31T16:49:38.870Z,53
2022-08-31T16:59:44.060Z,43
2022-08-31T17:09:51.358Z,42
2022-08-31T17:19:56.473Z,41
2022-08-31T17:29:58.659Z,41
2022-08-31T17:40:03.684Z,42
2022-08-31T17:50:08.279Z,42
2022-08-31T18:00:13.186Z,39
2022-08-31T18:10:18.894Z,42
2022-08-31T18:20:24.218Z,45
2022-08-31T18:30:29.429Z,44
2022-08-31T18:40:35.308Z,44
2022-08-31T18:50:40.269Z,44
2022-08-31T19:00:46.475Z,45
2022-08-31T19:10:50.536Z,42
2022-08-31T19:20:57.302Z,50
2022-08-31T19:31:03.349Z,53
2022-08-31T19:41:07.328Z,58
2022-08-31T19:51:14.213Z,60
2022-08-31T20:01:19.526Z,63
2022-08-31T20:11:25.461Z,60
2022-08-31T20:21:32.235Z,60
2022-08-31T20:31:38.465Z,63
2022-08-31T20:41:42.951Z,62
2022-08-31T20:51:50.344Z,53
2022-08-31T21:01:57.201Z,58
2022-08-31T21:12:01.877Z,58
2022-08-31T21:22:06.564Z,55
2022-08-31T21:32:12.349Z,60
2022-08-31T21:42:18.576Z,57
2022-08-31T21:52:24.637Z,57
2022-08-31T22:02:29.034Z,63
2022-08-31T22:12:35.468Z,65
2022-08-31T22:22:40.567Z,72
2022-08-31T22:32:45.918Z,85
2022-08-31T22:42:53.140Z,85
2022-08-31T22:52:59.205Z,87
2022-08-31T23:03:05.224Z,80
2022-08-31T23:13:09.756Z,82
2022-08-31T23:23:16.780Z,92
2022-08-31T23:33:22.954Z,94
2022-08-31T23:43:27.750Z,102
2022-08-31T23:53:38.449Z,99
